sensor_id;sensor_type;location;lat;lon;timestamp;P1;durP1;ratioP1;P2;durP2;ratioP2
20397;SDS011;10358;49.590;11.030;2023-03-29T00:00:20;5.80;;;2.03;;
20397;SDS011;10358;49.590;11.030;2023-03-29T00:02:45;7.50;;;2.13;;
20397;SDS011;10358;49.590;11.030;2023-03-29T00:05:12;3.77;;;1.87;;
20397;SDS011;10358;49.590;11.030;2023-03-29T00:07:39;5.67;;;2.03;;
20397;SDS011;10358;49.590;11.030;2023-03-29T00:10:06;5.57;;;2.17;;
20397;SDS011;10358;49.590;11.030;2023-03-29T00:12:33;4.60;;;2.07;;
20397;SDS011;10358;49.590;11.030;2023-03-29T00:15:00;5.87;;;2.20;;
20397;SDS011;10358;49.590;11.030;2023-03-29T00:17:26;5.90;;;2.00;;
20397;SDS011;10358;49.590;11.030;2023-03-29T00:19:51;6.20;;;2.10;;
20397;SDS011;10358;49.590;11.030;2023-03-29T00:22:17;8.60;;;2.60;;
20397;SDS011;10358;49.590;11.030;2023-03-29T00:24:43;7.57;;;2.50;;
20397;SDS011;10358;49.590;11.030;2023-03-29T00:27:11;5.27;;;2.37;;
20397;SDS011;10358;49.590;11.030;2023-03-29T00:29:37;7.93;;;2.80;;
20397;SDS011;10358;49.590;11.030;2023-03-29T00:32:03;6.53;;;2.47;;
20397;SDS011;10358;49.590;11.030;2023-03-29T00:34:28;9.00;;;2.60;;
20397;SDS011;10358;49.590;11.030;2023-03-29T00:36:57;4.97;;;2.33;;
20397;SDS011;10358;49.590;11.030;2023-03-29T00:39:24;7.00;;;2.20;;
20397;SDS011;10358;49.590;11.030;2023-03-29T00:41:51;9.90;;;2.80;;
20397;SDS011;10358;49.590;11.030;2023-03-29T00:47:42;5.77;;;2.17;;
20397;SDS011;10358;49.590;11.030;2023-03-29T00:53:10;5.00;;;2.23;;
20397;SDS011;10358;49.590;11.030;2023-03-29T00:55:42;6.00;;;2.37;;
20397;SDS011;10358;49.590;11.030;2023-03-29T00:58:20;9.13;;;2.60;;
20397;SDS011;10358;49.590;11.030;2023-03-29T01:00:57;5.23;;;2.50;;
20397;SDS011;10358;49.590;11.030;2023-03-29T01:03:27;4.73;;;2.20;;
20397;SDS011;10358;49.590;11.030;2023-03-29T01:06:04;5.07;;;2.37;;
20397;SDS011;10358;49.590;11.030;2023-03-29T01:08:38;6.17;;;2.30;;
20397;SDS011;10358;49.590;11.030;2023-03-29T01:11:42;4.80;;;2.23;;
20397;SDS011;10358;49.590;11.030;2023-03-29T01:16:44;7.07;;;2.50;;
20397;SDS011;10358;49.590;11.030;2023-03-29T01:19:11;7.00;;;2.87;;
20397;SDS011;10358;49.590;11.030;2023-03-29T01:21:51;6.47;;;2.53;;
20397;SDS011;10358;49.590;11.030;2023-03-29T01:24:31;8.47;;;2.90;;
20397;SDS011;10358;49.590;11.030;2023-03-29T01:30:31;6.10;;;2.57;;
20397;SDS011;10358;49.590;11.030;2023-03-29T01:33:09;9.90;;;2.63;;
20397;SDS011;10358;49.590;11.030;2023-03-29T01:35:46;5.33;;;2.37;;
20397;SDS011;10358;49.590;11.030;2023-03-29T01:38:43;6.90;;;2.73;;
20397;SDS011;10358;49.590;11.030;2023-03-29T01:41:12;4.63;;;2.63;;
20397;SDS011;10358;49.590;11.030;2023-03-29T01:43:40;5.87;;;2.60;;
20397;SDS011;10358;49.590;11.030;2023-03-29T01:46:14;3.90;;;2.33;;
20397;SDS011;10358;49.590;11.030;2023-03-29T01:51:28;5.63;;;2.30;;
20397;SDS011;10358;49.590;11.030;2023-03-29T01:54:04;9.27;;;2.60;;
20397;SDS011;10358;49.590;11.030;2023-03-29T01:56:36;6.30;;;2.43;;
20397;SDS011;10358;49.590;11.030;2023-03-29T01:59:06;6.27;;;2.40;;
20397;SDS011;10358;49.590;11.030;2023-03-29T02:01:37;4.60;;;2.60;;
20397;SDS011;10358;49.590;11.030;2023-03-29T02:04:09;6.80;;;2.43;;
20397;SDS011;10358;49.590;11.030;2023-03-29T02:06:38;3.53;;;2.20;;
20397;SDS011;10358;49.590;11.030;2023-03-29T02:09:05;5.00;;;2.80;;
20397;SDS011;10358;49.590;11.030;2023-03-29T02:11:31;4.63;;;2.63;;
20397;SDS011;10358;49.590;11.030;2023-03-29T02:13:59;4.70;;;2.20;;
20397;SDS011;10358;49.590;11.030;2023-03-29T02:16:25;7.87;;;2.47;;
20397;SDS011;10358;49.590;11.030;2023-03-29T02:18:52;4.33;;;2.30;;
20397;SDS011;10358;49.590;11.030;2023-03-29T02:21:23;5.93;;;2.50;;
20397;SDS011;10358;49.590;11.030;2023-03-29T02:24:12;7.97;;;2.47;;
20397;SDS011;10358;49.590;11.030;2023-03-29T02:26:43;7.93;;;2.70;;
20397;SDS011;10358;49.590;11.030;2023-03-29T02:29:12;9.70;;;2.50;;
20397;SDS011;10358;49.590;11.030;2023-03-29T02:31:43;6.63;;;2.40;;
20397;SDS011;10358;49.590;11.030;2023-03-29T02:34:32;8.73;;;2.40;;
20397;SDS011;10358;49.590;11.030;2023-03-29T02:37:05;7.80;;;2.47;;
20397;SDS011;10358;49.590;11.030;2023-03-29T02:39:38;5.27;;;2.27;;
20397;SDS011;10358;49.590;11.030;2023-03-29T02:42:08;3.60;;;2.20;;
20397;SDS011;10358;49.590;11.030;2023-03-29T02:44:40;7.23;;;2.27;;
20397;SDS011;10358;49.590;11.030;2023-03-29T02:47:16;5.17;;;2.50;;
20397;SDS011;10358;49.590;11.030;2023-03-29T02:49:52;5.27;;;2.60;;
20397;SDS011;10358;49.590;11.030;2023-03-29T02:52:20;4.07;;;2.30;;
20397;SDS011;10358;49.590;11.030;2023-03-29T02:54:53;7.77;;;2.40;;
20397;SDS011;10358;49.590;11.030;2023-03-29T02:57:21;6.97;;;2.57;;
20397;SDS011;10358;49.590;11.030;2023-03-29T02:59:54;7.80;;;2.90;;
20397;SDS011;10358;49.590;11.030;2023-03-29T03:02:21;5.27;;;2.67;;
20397;SDS011;10358;49.590;11.030;2023-03-29T03:04:49;5.57;;;2.50;;
20397;SDS011;10358;49.590;11.030;2023-03-29T03:07:15;10.30;;;3.03;;
20397;SDS011;10358;49.590;11.030;2023-03-29T03:09:42;5.80;;;2.63;;
20397;SDS011;10358;49.590;11.030;2023-03-29T03:12:11;4.67;;;2.70;;
20397;SDS011;10358;49.590;11.030;2023-03-29T03:14:36;7.27;;;2.60;;
20397;SDS011;10358;49.590;11.030;2023-03-29T03:17:02;6.97;;;2.67;;
20397;SDS011;10358;49.590;11.030;2023-03-29T03:19:28;6.93;;;2.57;;
20397;SDS011;10358;49.590;11.030;2023-03-29T03:21:53;5.23;;;2.37;;
20397;SDS011;10358;49.590;11.030;2023-03-29T03:24:21;5.03;;;2.70;;
20397;SDS011;10358;49.590;11.030;2023-03-29T03:26:51;6.00;;;2.60;;
20397;SDS011;10358;49.590;11.030;2023-03-29T03:29:17;5.37;;;2.50;;
20397;SDS011;10358;49.590;11.030;2023-03-29T03:31:43;7.80;;;2.73;;
20397;SDS011;10358;49.590;11.030;2023-03-29T03:34:09;6.60;;;2.70;;
20397;SDS011;10358;49.590;11.030;2023-03-29T03:36:35;7.60;;;2.80;;
20397;SDS011;10358;49.590;11.030;2023-03-29T03:39:04;7.87;;;3.07;;
20397;SDS011;10358;49.590;11.030;2023-03-29T03:41:31;6.50;;;2.83;;
20397;SDS011;10358;49.590;11.030;2023-03-29T03:44:00;10.37;;;3.10;;
20397;SDS011;10358;49.590;11.030;2023-03-29T03:46:29;4.33;;;2.90;;
20397;SDS011;10358;49.590;11.030;2023-03-29T03:48:55;8.13;;;2.60;;
20397;SDS011;10358;49.590;11.030;2023-03-29T03:51:24;5.27;;;2.83;;
20397;SDS011;10358;49.590;11.030;2023-03-29T03:53:53;6.67;;;3.40;;
20397;SDS011;10358;49.590;11.030;2023-03-29T03:56:19;5.00;;;3.10;;
20397;SDS011;10358;49.590;11.030;2023-03-29T03:58:44;5.27;;;3.00;;
20397;SDS011;10358;49.590;11.030;2023-03-29T04:01:13;5.43;;;3.00;;
20397;SDS011;10358;49.590;11.030;2023-03-29T04:03:38;6.70;;;3.00;;
20397;SDS011;10358;49.590;11.030;2023-03-29T04:06:04;6.17;;;3.30;;
20397;SDS011;10358;49.590;11.030;2023-03-29T04:08:33;8.50;;;2.80;;
20397;SDS011;10358;49.590;11.030;2023-03-29T04:10:59;3.87;;;2.57;;
20397;SDS011;10358;49.590;11.030;2023-03-29T04:13:25;5.20;;;2.57;;
20397;SDS011;10358;49.590;11.030;2023-03-29T04:15:51;6.77;;;2.90;;
20397;SDS011;10358;49.590;11.030;2023-03-29T04:18:20;6.37;;;2.80;;
20397;SDS011;10358;49.590;11.030;2023-03-29T04:20:47;4.87;;;2.93;;
20397;SDS011;10358;49.590;11.030;2023-03-29T04:23:14;5.23;;;2.50;;
20397;SDS011;10358;49.590;11.030;2023-03-29T04:25:39;5.20;;;2.10;;
20397;SDS011;10358;49.590;11.030;2023-03-29T04:28:05;5.60;;;2.67;;
20397;SDS011;10358;49.590;11.030;2023-03-29T04:30:31;4.97;;;2.40;;
20397;SDS011;10358;49.590;11.030;2023-03-29T04:32:57;10.77;;;2.70;;
20397;SDS011;10358;49.590;11.030;2023-03-29T04:35:22;5.20;;;2.77;;
20397;SDS011;10358;49.590;11.030;2023-03-29T04:37:48;4.33;;;2.50;;
20397;SDS011;10358;49.590;11.030;2023-03-29T04:40:15;4.87;;;2.43;;
20397;SDS011;10358;49.590;11.030;2023-03-29T04:42:43;4.23;;;2.37;;
20397;SDS011;10358;49.590;11.030;2023-03-29T04:45:11;4.50;;;2.00;;
20397;SDS011;10358;49.590;11.030;2023-03-29T04:47:46;4.50;;;2.83;;
20397;SDS011;10358;49.590;11.030;2023-03-29T04:50:12;7.03;;;3.30;;
20397;SDS011;10358;49.590;11.030;2023-03-29T04:52:37;5.80;;;2.70;;
20397;SDS011;10358;49.590;11.030;2023-03-29T04:55:03;7.60;;;3.20;;
20397;SDS011;10358;49.590;11.030;2023-03-29T04:57:30;4.50;;;2.67;;
20397;SDS011;10358;49.590;11.030;2023-03-29T04:59:56;5.80;;;2.80;;
20397;SDS011;10358;49.590;11.030;2023-03-29T05:02:22;4.60;;;2.43;;
20397;SDS011;10358;49.590;11.030;2023-03-29T05:04:47;5.60;;;2.70;;
20397;SDS011;10358;49.590;11.030;2023-03-29T05:07:13;5.43;;;2.70;;
20397;SDS011;10358;49.590;11.030;2023-03-29T05:09:39;5.03;;;2.77;;
20397;SDS011;10358;49.590;11.030;2023-03-29T05:12:05;4.23;;;2.70;;
20397;SDS011;10358;49.590;11.030;2023-03-29T05:14:31;3.87;;;2.53;;
20397;SDS011;10358;49.590;11.030;2023-03-29T05:16:57;7.13;;;2.93;;
20397;SDS011;10358;49.590;11.030;2023-03-29T05:19:22;4.17;;;2.67;;
20397;SDS011;10358;49.590;11.030;2023-03-29T05:21:48;5.63;;;2.70;;
20397;SDS011;10358;49.590;11.030;2023-03-29T05:24:14;10.37;;;2.90;;
20397;SDS011;10358;49.590;11.030;2023-03-29T05:26:41;5.37;;;2.67;;
20397;SDS011;10358;49.590;11.030;2023-03-29T05:29:06;6.47;;;2.80;;
20397;SDS011;10358;49.590;11.030;2023-03-29T05:31:33;4.10;;;2.77;;
20397;SDS011;10358;49.590;11.030;2023-03-29T05:33:59;5.63;;;3.00;;
20397;SDS011;10358;49.590;11.030;2023-03-29T05:36:24;4.40;;;2.57;;
20397;SDS011;10358;49.590;11.030;2023-03-29T05:38:50;6.73;;;3.07;;
20397;SDS011;10358;49.590;11.030;2023-03-29T05:41:16;4.73;;;2.93;;
20397;SDS011;10358;49.590;11.030;2023-03-29T05:43:44;5.83;;;3.37;;
20397;SDS011;10358;49.590;11.030;2023-03-29T05:46:10;6.93;;;3.03;;
20397;SDS011;10358;49.590;11.030;2023-03-29T05:48:36;7.60;;;3.33;;
20397;SDS011;10358;49.590;11.030;2023-03-29T05:51:02;6.30;;;3.27;;
20397;SDS011;10358;49.590;11.030;2023-03-29T05:53:28;5.37;;;3.63;;
20397;SDS011;10358;49.590;11.030;2023-03-29T05:55:54;8.40;;;3.97;;
20397;SDS011;10358;49.590;11.030;2023-03-29T05:58:20;7.37;;;3.70;;
20397;SDS011;10358;49.590;11.030;2023-03-29T06:00:46;5.27;;;3.23;;
20397;SDS011;10358;49.590;11.030;2023-03-29T06:03:14;5.33;;;3.30;;
20397;SDS011;10358;49.590;11.030;2023-03-29T06:05:43;5.03;;;3.30;;
20397;SDS011;10358;49.590;11.030;2023-03-29T06:08:13;4.70;;;3.10;;
20397;SDS011;10358;49.590;11.030;2023-03-29T06:10:39;7.73;;;3.60;;
20397;SDS011;10358;49.590;11.030;2023-03-29T06:13:05;5.50;;;2.90;;
20397;SDS011;10358;49.590;11.030;2023-03-29T06:15:31;5.40;;;3.20;;
20397;SDS011;10358;49.590;11.030;2023-03-29T06:17:57;5.90;;;3.20;;
20397;SDS011;10358;49.590;11.030;2023-03-29T06:20:23;5.30;;;3.00;;
20397;SDS011;10358;49.590;11.030;2023-03-29T06:22:49;5.27;;;3.03;;
20397;SDS011;10358;49.590;11.030;2023-03-29T06:25:15;4.97;;;3.10;;
20397;SDS011;10358;49.590;11.030;2023-03-29T06:27:41;5.80;;;2.97;;
20397;SDS011;10358;49.590;11.030;2023-03-29T06:30:07;5.63;;;3.20;;
20397;SDS011;10358;49.590;11.030;2023-03-29T06:32:33;6.27;;;3.17;;
20397;SDS011;10358;49.590;11.030;2023-03-29T06:34:59;4.47;;;3.17;;
20397;SDS011;10358;49.590;11.030;2023-03-29T06:37:25;6.23;;;3.10;;
20397;SDS011;10358;49.590;11.030;2023-03-29T06:39:51;5.47;;;3.20;;
20397;SDS011;10358;49.590;11.030;2023-03-29T06:42:20;6.00;;;3.23;;
20397;SDS011;10358;49.590;11.030;2023-03-29T06:44:46;7.27;;;3.30;;
20397;SDS011;10358;49.590;11.030;2023-03-29T06:47:13;8.23;;;3.50;;
20397;SDS011;10358;49.590;11.030;2023-03-29T06:49:40;7.80;;;3.40;;
20397;SDS011;10358;49.590;11.030;2023-03-29T06:52:06;9.67;;;3.37;;
20397;SDS011;10358;49.590;11.030;2023-03-29T06:54:31;6.03;;;3.37;;
20397;SDS011;10358;49.590;11.030;2023-03-29T06:56:57;6.47;;;3.07;;
20397;SDS011;10358;49.590;11.030;2023-03-29T06:59:23;8.23;;;3.30;;
20397;SDS011;10358;49.590;11.030;2023-03-29T07:01:49;6.90;;;3.50;;
20397;SDS011;10358;49.590;11.030;2023-03-29T07:04:17;5.00;;;3.20;;
20397;SDS011;10358;49.590;11.030;2023-03-29T07:06:43;9.57;;;4.03;;
20397;SDS011;10358;49.590;11.030;2023-03-29T07:09:13;7.43;;;3.97;;
20397;SDS011;10358;49.590;11.030;2023-03-29T07:11:40;8.10;;;4.17;;
20397;SDS011;10358;49.590;11.030;2023-03-29T07:14:07;8.20;;;3.90;;
20397;SDS011;10358;49.590;11.030;2023-03-29T07:16:33;5.83;;;3.60;;
20397;SDS011;10358;49.590;11.030;2023-03-29T07:19:01;6.63;;;3.83;;
20397;SDS011;10358;49.590;11.030;2023-03-29T07:21:28;5.23;;;3.60;;
20397;SDS011;10358;49.590;11.030;2023-03-29T07:23:54;8.67;;;4.10;;
20397;SDS011;10358;49.590;11.030;2023-03-29T07:26:22;8.20;;;3.90;;
20397;SDS011;10358;49.590;11.030;2023-03-29T07:28:48;5.73;;;3.30;;
20397;SDS011;10358;49.590;11.030;2023-03-29T07:31:14;6.57;;;3.30;;
20397;SDS011;10358;49.590;11.030;2023-03-29T07:33:41;8.13;;;3.50;;
20397;SDS011;10358;49.590;11.030;2023-03-29T07:36:07;7.17;;;3.77;;
20397;SDS011;10358;49.590;11.030;2023-03-29T07:38:34;6.43;;;3.70;;
20397;SDS011;10358;49.590;11.030;2023-03-29T07:41:02;5.57;;;3.73;;
20397;SDS011;10358;49.590;11.030;2023-03-29T07:43:30;6.00;;;3.60;;
20397;SDS011;10358;49.590;11.030;2023-03-29T07:45:59;6.37;;;3.73;;
20397;SDS011;10358;49.590;11.030;2023-03-29T07:48:29;6.27;;;3.50;;
20397;SDS011;10358;49.590;11.030;2023-03-29T07:50:55;6.87;;;3.67;;
20397;SDS011;10358;49.590;11.030;2023-03-29T07:53:21;7.60;;;3.43;;
20397;SDS011;10358;49.590;11.030;2023-03-29T07:55:47;7.30;;;3.57;;
20397;SDS011;10358;49.590;11.030;2023-03-29T07:58:14;7.33;;;3.50;;
20397;SDS011;10358;49.590;11.030;2023-03-29T08:00:40;6.57;;;3.57;;
20397;SDS011;10358;49.590;11.030;2023-03-29T08:03:08;7.93;;;3.63;;
20397;SDS011;10358;49.590;11.030;2023-03-29T08:05:35;5.97;;;3.67;;
20397;SDS011;10358;49.590;11.030;2023-03-29T08:08:01;7.97;;;3.90;;
20397;SDS011;10358;49.590;11.030;2023-03-29T08:10:27;10.03;;;3.77;;
20397;SDS011;10358;49.590;11.030;2023-03-29T08:12:52;8.80;;;3.80;;
20397;SDS011;10358;49.590;11.030;2023-03-29T08:15:18;7.33;;;3.93;;
20397;SDS011;10358;49.590;11.030;2023-03-29T08:17:44;9.53;;;3.90;;
20397;SDS011;10358;49.590;11.030;2023-03-29T08:20:10;6.93;;;3.77;;
20397;SDS011;10358;49.590;11.030;2023-03-29T08:22:38;6.07;;;3.40;;
20397;SDS011;10358;49.590;11.030;2023-03-29T08:25:04;8.07;;;4.10;;
20397;SDS011;10358;49.590;11.030;2023-03-29T08:27:31;5.57;;;3.23;;
20397;SDS011;10358;49.590;11.030;2023-03-29T08:29:57;8.00;;;3.47;;
20397;SDS011;10358;49.590;11.030;2023-03-29T08:32:22;5.93;;;3.50;;
20397;SDS011;10358;49.590;11.030;2023-03-29T08:34:48;8.07;;;3.40;;
20397;SDS011;10358;49.590;11.030;2023-03-29T08:37:14;7.23;;;3.70;;
20397;SDS011;10358;49.590;11.030;2023-03-29T08:39:40;7.90;;;3.70;;
20397;SDS011;10358;49.590;11.030;2023-03-29T08:48:01;7.03;;;3.77;;
20397;SDS011;10358;49.590;11.030;2023-03-29T08:50:49;7.23;;;3.63;;
20397;SDS011;10358;49.590;11.030;2023-03-29T08:53:38;6.27;;;3.80;;
20397;SDS011;10358;49.590;11.030;2023-03-29T08:56:07;6.80;;;3.37;;
20397;SDS011;10358;49.590;11.030;2023-03-29T08:58:38;4.93;;;3.60;;
20397;SDS011;10358;49.590;11.030;2023-03-29T09:01:06;5.43;;;3.70;;
20397;SDS011;10358;49.590;11.030;2023-03-29T09:03:49;6.57;;;3.70;;
20397;SDS011;10358;49.590;11.030;2023-03-29T09:06:23;6.90;;;3.30;;
20397;SDS011;10358;49.590;11.030;2023-03-29T09:08:49;8.17;;;3.63;;
20397;SDS011;10358;49.590;11.030;2023-03-29T09:16:30;5.53;;;3.70;;
20397;SDS011;10358;49.590;11.030;2023-03-29T09:19:22;5.33;;;3.30;;
20397;SDS011;10358;49.590;11.030;2023-03-29T09:25:22;5.70;;;3.40;;
20397;SDS011;10358;49.590;11.030;2023-03-29T09:28:05;6.57;;;3.50;;
20397;SDS011;10358;49.590;11.030;2023-03-29T09:30:42;6.63;;;3.60;;
20397;SDS011;10358;49.590;11.030;2023-03-29T09:33:25;6.43;;;3.77;;
20397;SDS011;10358;49.590;11.030;2023-03-29T09:36:03;5.73;;;3.10;;
20397;SDS011;10358;49.590;11.030;2023-03-29T09:38:39;5.93;;;3.30;;
20397;SDS011;10358;49.590;11.030;2023-03-29T09:41:17;5.53;;;3.13;;
20397;SDS011;10358;49.590;11.030;2023-03-29T09:43:51;4.60;;;3.20;;
20397;SDS011;10358;49.590;11.030;2023-03-29T09:46:31;6.37;;;3.27;;
20397;SDS011;10358;49.590;11.030;2023-03-29T09:49:05;6.60;;;2.90;;
20397;SDS011;10358;49.590;11.030;2023-03-29T09:51:34;4.43;;;2.70;;
20397;SDS011;10358;49.590;11.030;2023-03-29T09:54:01;6.60;;;2.93;;
20397;SDS011;10358;49.590;11.030;2023-03-29T09:56:27;5.13;;;2.40;;
20397;SDS011;10358;49.590;11.030;2023-03-29T09:58:53;5.97;;;2.60;;
20397;SDS011;10358;49.590;11.030;2023-03-29T10:01:19;5.47;;;2.63;;
20397;SDS011;10358;49.590;11.030;2023-03-29T10:03:47;5.60;;;2.50;;
20397;SDS011;10358;49.590;11.030;2023-03-29T10:06:15;8.30;;;2.23;;
20397;SDS011;10358;49.590;11.030;2023-03-29T10:08:48;4.03;;;2.40;;
20397;SDS011;10358;49.590;11.030;2023-03-29T10:11:23;6.20;;;2.20;;
20397;SDS011;10358;49.590;11.030;2023-03-29T10:14:04;3.73;;;2.00;;
20397;SDS011;10358;49.590;11.030;2023-03-29T10:16:37;6.80;;;2.57;;
20397;SDS011;10358;49.590;11.030;2023-03-29T10:19:17;2.87;;;1.90;;
20397;SDS011;10358;49.590;11.030;2023-03-29T10:21:46;3.90;;;1.80;;
20397;SDS011;10358;49.590;11.030;2023-03-29T10:24:17;3.97;;;1.97;;
20397;SDS011;10358;49.590;11.030;2023-03-29T10:26:47;6.90;;;1.90;;
20397;SDS011;10358;49.590;11.030;2023-03-29T10:29:19;5.93;;;2.00;;
20397;SDS011;10358;49.590;11.030;2023-03-29T10:31:46;3.90;;;2.17;;
20397;SDS011;10358;49.590;11.030;2023-03-29T10:34:13;3.47;;;2.10;;
20397;SDS011;10358;49.590;11.030;2023-03-29T10:36:40;3.10;;;1.83;;
20397;SDS011;10358;49.590;11.030;2023-03-29T10:39:08;4.80;;;2.00;;
20397;SDS011;10358;49.590;11.030;2023-03-29T10:41:37;4.73;;;2.23;;
20397;SDS011;10358;49.590;11.030;2023-03-29T10:44:03;3.27;;;2.20;;
20397;SDS011;10358;49.590;11.030;2023-03-29T10:46:32;5.23;;;2.03;;
20397;SDS011;10358;49.590;11.030;2023-03-29T10:49:14;3.30;;;2.00;;
20397;SDS011;10358;49.590;11.030;2023-03-29T10:51:44;4.47;;;2.00;;
20397;SDS011;10358;49.590;11.030;2023-03-29T10:54:14;3.23;;;1.80;;
20397;SDS011;10358;49.590;11.030;2023-03-29T10:56:46;6.25;;;3.17;;
20397;SDS011;10358;49.590;11.030;2023-03-29T10:59:20;3.78;;;2.00;;
20397;SDS011;10358;49.590;11.030;2023-03-29T11:29:18;5.13;;;1.88;;
20397;SDS011;10358;49.590;11.030;2023-03-29T11:42:56;4.40;;;1.50;;
20397;SDS011;10358;49.590;11.030;2023-03-29T11:45:28;6.25;;;1.75;;
20397;SDS011;10358;49.590;11.030;2023-03-29T11:47:59;3.78;;;1.75;;
20397;SDS011;10358;49.590;11.030;2023-03-29T11:50:41;4.30;;;1.70;;
20397;SDS011;10358;49.590;11.030;2023-03-29T11:53:33;2.83;;;1.50;;
20397;SDS011;10358;49.590;11.030;2023-03-29T11:56:11;2.83;;;1.70;;
20397;SDS011;10358;49.590;11.030;2023-03-29T11:58:40;3.55;;;1.80;;
20397;SDS011;10358;49.590;11.030;2023-03-29T12:01:13;4.95;;;1.63;;
20397;SDS011;10358;49.590;11.030;2023-03-29T12:03:43;3.72;;;2.03;;
20397;SDS011;10358;49.590;11.030;2023-03-29T12:06:28;5.53;;;1.85;;
20397;SDS011;10358;49.590;11.030;2023-03-29T12:09:01;3.22;;;1.70;;
20397;SDS011;10358;49.590;11.030;2023-03-29T12:11:35;2.83;;;1.80;;
20397;SDS011;10358;49.590;11.030;2023-03-29T12:14:12;4.07;;;1.88;;
20397;SDS011;10358;49.590;11.030;2023-03-29T12:16:46;4.72;;;2.00;;
20397;SDS011;10358;49.590;11.030;2023-03-29T12:22:07;3.22;;;1.80;;
20397;SDS011;10358;49.590;11.030;2023-03-29T12:24:32;4.30;;;1.85;;
20397;SDS011;10358;49.590;11.030;2023-03-29T12:27:23;3.75;;;2.00;;
20397;SDS011;10358;49.590;11.030;2023-03-29T12:35:53;5.75;;;1.67;;
20397;SDS011;10358;49.590;11.030;2023-03-29T12:38:40;4.63;;;1.88;;
20397;SDS011;10358;49.590;11.030;2023-03-29T12:41:15;8.73;;;1.77;;
20397;SDS011;10358;49.590;11.030;2023-03-29T12:43:43;3.85;;;1.55;;
20397;SDS011;10358;49.590;11.030;2023-03-29T12:46:13;3.22;;;1.70;;
20397;SDS011;10358;49.590;11.030;2023-03-29T12:48:44;6.47;;;1.70;;
20397;SDS011;10358;49.590;11.030;2023-03-29T12:51:17;4.50;;;1.70;;
20397;SDS011;10358;49.590;11.030;2023-03-29T12:53:53;5.35;;;2.10;;
20397;SDS011;10358;49.590;11.030;2023-03-29T12:56:35;3.47;;;1.77;;
20397;SDS011;10358;49.590;11.030;2023-03-29T13:07:14;5.32;;;1.85;;
20397;SDS011;10358;49.590;11.030;2023-03-29T13:09:54;4.43;;;1.70;;
20397;SDS011;10358;49.590;11.030;2023-03-29T13:14:59;3.17;;;1.85;;
20397;SDS011;10358;49.590;11.030;2023-03-29T13:20:10;2.72;;;1.30;;
20397;SDS011;10358;49.590;11.030;2023-03-29T13:22:58;2.33;;;1.42;;
20397;SDS011;10358;49.590;11.030;2023-03-29T13:28:05;4.60;;;1.88;;
20397;SDS011;10358;49.590;11.030;2023-03-29T13:30:54;5.90;;;1.73;;
20397;SDS011;10358;49.590;11.030;2023-03-29T13:33:35;4.30;;;1.55;;
20397;SDS011;10358;49.590;11.030;2023-03-29T13:36:34;5.32;;;1.80;;
20397;SDS011;10358;49.590;11.030;2023-03-29T13:39:23;5.63;;;1.65;;
20397;SDS011;10358;49.590;11.030;2023-03-29T13:42:04;4.63;;;1.75;;
20397;SDS011;10358;49.590;11.030;2023-03-29T13:44:38;5.13;;;1.70;;
20397;SDS011;10358;49.590;11.030;2023-03-29T13:49:56;6.53;;;1.80;;
20397;SDS011;10358;49.590;11.030;2023-03-29T13:52:25;4.95;;;1.52;;
20397;SDS011;10358;49.590;11.030;2023-03-29T13:55:04;6.20;;;1.50;;
20397;SDS011;10358;49.590;11.030;2023-03-29T13:57:56;3.90;;;1.50;;
20397;SDS011;10358;49.590;11.030;2023-03-29T14:00:44;3.85;;;1.60;;
20397;SDS011;10358;49.590;11.030;2023-03-29T14:03:16;3.17;;;1.40;;
20397;SDS011;10358;49.590;11.030;2023-03-29T14:05:50;5.55;;;1.65;;
20397;SDS011;10358;49.590;11.030;2023-03-29T14:08:30;3.88;;;1.90;;
20397;SDS011;10358;49.590;11.030;2023-03-29T14:11:00;3.00;;;1.80;;
20397;SDS011;10358;49.590;11.030;2023-03-29T14:13:28;5.55;;;1.88;;
20397;SDS011;10358;49.590;11.030;2023-03-29T14:18:23;4.97;;;1.98;;
20397;SDS011;10358;49.590;11.030;2023-03-29T14:20:52;6.60;;;2.10;;
20397;SDS011;10358;49.590;11.030;2023-03-29T14:23:24;4.85;;;1.98;;
20397;SDS011;10358;49.590;11.030;2023-03-29T14:25:52;6.28;;;1.75;;
20397;SDS011;10358;49.590;11.030;2023-03-29T14:28:18;5.50;;;1.88;;
20397;SDS011;10358;49.590;11.030;2023-03-29T14:30:48;3.78;;;2.22;;
20397;SDS011;10358;49.590;11.030;2023-03-29T14:33:23;6.07;;;2.10;;
20397;SDS011;10358;49.590;11.030;2023-03-29T14:35:51;5.63;;;1.90;;
20397;SDS011;10358;49.590;11.030;2023-03-29T14:38:17;6.10;;;2.20;;
20397;SDS011;10358;49.590;11.030;2023-03-29T14:40:43;4.43;;;1.95;;
20397;SDS011;10358;49.590;11.030;2023-03-29T14:43:10;5.40;;;2.00;;
20397;SDS011;10358;49.590;11.030;2023-03-29T14:45:41;5.53;;;2.05;;
20397;SDS011;10358;49.590;11.030;2023-03-29T14:48:08;4.05;;;1.92;;
20397;SDS011;10358;49.590;11.030;2023-03-29T14:50:37;9.20;;;2.28;;
20397;SDS011;10358;49.590;11.030;2023-03-29T14:53:03;6.65;;;2.28;;
20397;SDS011;10358;49.590;11.030;2023-03-29T14:55:29;4.95;;;2.13;;
20397;SDS011;10358;49.590;11.030;2023-03-29T14:57:55;8.73;;;2.63;;
20397;SDS011;10358;49.590;11.030;2023-03-29T15:00:23;9.23;;;2.40;;
20397;SDS011;10358;49.590;11.030;2023-03-29T15:02:58;5.10;;;1.88;;
20397;SDS011;10358;49.590;11.030;2023-03-29T15:05:38;5.07;;;2.28;;
20397;SDS011;10358;49.590;11.030;2023-03-29T15:08:05;2.83;;;1.80;;
20397;SDS011;10358;49.590;11.030;2023-03-29T15:10:37;6.85;;;1.85;;
20397;SDS011;10358;49.590;11.030;2023-03-29T15:13:04;5.65;;;2.42;;
20397;SDS011;10358;49.590;11.030;2023-03-29T15:15:35;7.35;;;1.80;;
20397;SDS011;10358;49.590;11.030;2023-03-29T15:18:03;5.00;;;2.10;;
20397;SDS011;10358;49.590;11.030;2023-03-29T15:20:35;4.22;;;2.13;;
20397;SDS011;10358;49.590;11.030;2023-03-29T15:23:07;4.75;;;2.08;;
20397;SDS011;10358;49.590;11.030;2023-03-29T15:25:49;5.82;;;1.85;;
20397;SDS011;10358;49.590;11.030;2023-03-29T15:28:25;4.85;;;2.00;;
20397;SDS011;10358;49.590;11.030;2023-03-29T15:31:13;5.07;;;2.20;;
20397;SDS011;10358;49.590;11.030;2023-03-29T15:33:43;6.75;;;2.40;;
20397;SDS011;10358;49.590;11.030;2023-03-29T15:36:09;4.57;;;2.40;;
20397;SDS011;10358;49.590;11.030;2023-03-29T15:38:37;4.88;;;2.42;;
20397;SDS011;10358;49.590;11.030;2023-03-29T15:41:03;8.05;;;1.95;;
20397;SDS011;10358;49.590;11.030;2023-03-29T15:43:30;7.30;;;2.53;;
20397;SDS011;10358;49.590;11.030;2023-03-29T15:45:56;4.80;;;2.22;;
20397;SDS011;10358;49.590;11.030;2023-03-29T15:48:25;5.03;;;2.40;;
20397;SDS011;10358;49.590;11.030;2023-03-29T15:50:52;5.30;;;2.20;;
20397;SDS011;10358;49.590;11.030;2023-03-29T15:53:18;8.63;;;2.75;;
20397;SDS011;10358;49.590;11.030;2023-03-29T15:55:47;4.63;;;2.00;;
20397;SDS011;10358;49.590;11.030;2023-03-29T15:58:15;4.75;;;2.50;;
20397;SDS011;10358;49.590;11.030;2023-03-29T16:00:43;4.38;;;2.20;;
20397;SDS011;10358;49.590;11.030;2023-03-29T16:03:19;6.55;;;2.55;;
20397;SDS011;10358;49.590;11.030;2023-03-29T16:05:46;4.82;;;2.45;;
20397;SDS011;10358;49.590;11.030;2023-03-29T16:08:12;5.53;;;2.30;;
20397;SDS011;10358;49.590;11.030;2023-03-29T16:10:38;4.57;;;2.10;;
20397;SDS011;10358;49.590;11.030;2023-03-29T16:13:05;3.92;;;2.47;;
20397;SDS011;10358;49.590;11.030;2023-03-29T16:15:31;4.35;;;2.13;;
20397;SDS011;10358;49.590;11.030;2023-03-29T16:17:58;4.43;;;2.38;;
20397;SDS011;10358;49.590;11.030;2023-03-29T16:20:23;3.90;;;2.22;;
20397;SDS011;10358;49.590;11.030;2023-03-29T16:22:49;5.10;;;2.30;;
20397;SDS011;10358;49.590;11.030;2023-03-29T16:25:16;5.13;;;2.30;;
20397;SDS011;10358;49.590;11.030;2023-03-29T16:27:46;9.57;;;2.40;;